createdAt,value
2017-07-09T00:00:51.973Z,0
2017-07-09T00:02:04.262Z,0
2017-07-09T00:03:16.905Z,0
2017-07-09T00:04:29.449Z,0
2017-07-09T00:05:41.770Z,0
2017-07-09T00:06:53.992Z,0
2017-07-09T00:08:06.279Z,0
2017-07-09T00:09:17.925Z,0
2017-07-09T00:10:30.502Z,0
2017-07-09T00:11:42.800Z,0
2017-07-09T00:12:55.371Z,0
2017-07-09T00:14:07.921Z,0
2017-07-09T00:15:20.205Z,0
2017-07-09T00:16:32.445Z,0
2017-07-09T00:17:44.679Z,0
2017-07-09T00:18:56.657Z,0
2017-07-09T00:20:08.981Z,0
2017-07-09T00:21:21.273Z,0
2017-07-09T00:22:32.963Z,0
2017-07-09T00:23:45.259Z,0
2017-07-09T00:24:57.455Z,0
2017-07-09T00:26:09.769Z,0
2017-07-09T00:27:22.024Z,0
2017-07-09T00:28:34.551Z,0
2017-07-09T00:29:46.863Z,0
2017-07-09T00:30:59.166Z,0
2017-07-09T00:32:11.466Z,0
2017-07-09T00:33:23.709Z,0
2017-07-09T00:34:36.353Z,0
2017-07-09T00:35:48.594Z,0
2017-07-09T00:37:01.190Z,0
2017-07-09T00:38:12.835Z,0
2017-07-09T00:39:25.461Z,0
2017-07-09T00:40:37.769Z,0
2017-07-09T00:41:49.700Z,0
2017-07-09T00:43:01.943Z,0
2017-07-09T00:44:14.207Z,0
2017-07-09T00:45:26.229Z,0
2017-07-09T00:46:38.497Z,0
2017-07-09T00:47:51.037Z,0
2017-07-09T00:49:03.600Z,0
2017-07-09T00:50:15.844Z,0
2017-07-09T00:51:28.122Z,0
2017-07-09T00:52:40.402Z,0
2017-07-09T00:53:52.349Z,0
2017-07-09T00:55:04.614Z,0
2017-07-09T00:56:16.860Z,0
2017-07-09T00:57:29.118Z,0
2017-07-09T00:58:41.366Z,0
2017-07-09T00:59:53.618Z,0
2017-07-09T01:01:06.169Z,0
2017-07-09T01:02:18.760Z,0
2017-07-09T01:03:31.673Z,0
2017-07-09T01:04:44.313Z,0
2017-07-09T01:05:56.555Z,0
2017-07-09T01:07:08.548Z,0
2017-07-09T01:08:20.783Z,0
2017-07-09T01:09:32.785Z,0
2017-07-09T01:10:45.367Z,0
2017-07-09T01:11:57.977Z,0
2017-07-09T01:13:10.191Z,0
2017-07-09T01:14:22.773Z,0
2017-07-09T01:15:35.385Z,0
2017-07-09T01:16:48.041Z,0
2017-07-09T01:18:00.326Z,0
2017-07-09T01:19:12.627Z,0
2017-07-09T01:20:24.828Z,0
2017-07-09T01:21:37.438Z,0
2017-07-09T01:22:49.390Z,0
2017-07-09T01:24:01.630Z,0
2017-07-09T01:25:13.901Z,0
2017-07-09T01:26:26.488Z,0
2017-07-09T01:27:38.424Z,0
2017-07-09T01:28:50.750Z,0
2017-07-09T01:30:03.310Z,0
2017-07-09T01:31:15.899Z,0
2017-07-09T01:32:28.206Z,0
2017-07-09T01:33:40.865Z,0
2017-07-09T01:34:53.497Z,0
2017-07-09T01:36:06.068Z,0
2017-07-09T01:37:18.321Z,0
2017-07-09T01:38:30.314Z,0
2017-07-09T01:39:42.252Z,0
2017-07-09T01:40:54.496Z,0
2017-07-09T01:42:07.301Z,0
2017-07-09T01:43:19.907Z,0
2017-07-09T01:44:32.461Z,0
2017-07-09T01:45:44.706Z,0
2017-07-09T01:46:56.664Z,0
2017-07-09T01:48:08.655Z,0
2017-07-09T01:49:21.322Z,0
2017-07-09T01:50:33.921Z,0
2017-07-09T01:51:46.517Z,0
2017-07-09T01:52:59.140Z,0
2017-07-09T01:54:11.060Z,0
2017-07-09T01:55:23.625Z,0
2017-07-09T01:56:35.851Z,0
2017-07-09T01:57:48.159Z,0
2017-07-09T01:59:00.442Z,0
2017-07-09T02:00:12.436Z,0
2017-07-09T02:01:25.006Z,0
2017-07-09T02:02:37.000Z,0
2017-07-09T02:03:49.531Z,0
2017-07-09T02:05:01.767Z,0
2017-07-09T02:06:14.011Z,0
2017-07-09T02:07:26.258Z,0
2017-07-09T02:08:38.810Z,0
2017-07-09T02:09:51.461Z,0
2017-07-09T02:11:03.722Z,0
2017-07-09T02:12:15.354Z,0
2017-07-09T02:13:27.624Z,0
2017-07-09T02:14:40.233Z,0
2017-07-09T02:15:52.517Z,0
2017-07-09T02:17:04.768Z,0
2017-07-09T02:18:17.397Z,0
2017-07-09T02:19:29.954Z,0
2017-07-09T02:20:41.595Z,0
2017-07-09T02:21:53.561Z,0
2017-07-09T02:23:05.463Z,0
2017-07-09T02:24:17.393Z,0
2017-07-09T02:25:29.672Z,0
2017-07-09T02:26:41.986Z,0
2017-07-09T02:27:54.564Z,0
2017-07-09T02:29:07.152Z,0
2017-07-09T02:30:19.074Z,0
2017-07-09T02:31:31.694Z,0
2017-07-09T02:32:43.948Z,0
2017-07-09T02:33:56.225Z,0
2017-07-09T02:35:08.795Z,0
2017-07-09T02:36:21.313Z,0
2017-07-09T02:37:33.238Z,0
2017-07-09T02:38:45.792Z,0
2017-07-09T02:39:58.060Z,0
2017-07-09T02:41:10.097Z,0
2017-07-09T02:42:22.681Z,0
2017-07-09T02:43:34.961Z,0
2017-07-09T02:44:47.207Z,0
2017-07-09T02:45:59.784Z,5
2017-07-09T02:47:11.423Z,5
2017-07-09T02:48:24.023Z,5
2017-07-09T02:49:36.319Z,5
2017-07-09T02:50:48.937Z,5
2017-07-09T02:52:01.527Z,5
2017-07-09T02:53:14.109Z,5
2017-07-09T02:54:26.687Z,10
2017-07-09T02:55:38.970Z,10
2017-07-09T02:56:51.620Z,10
2017-07-09T02:58:03.672Z,10
2017-07-09T02:59:16.208Z,10
2017-07-09T03:00:28.741Z,10
2017-07-09T03:01:41.330Z,10
2017-07-09T03:02:53.938Z,15
2017-07-09T03:04:05.553Z,15
2017-07-09T03:05:17.531Z,15
2017-07-09T03:06:29.836Z,15
2017-07-09T03:07:42.054Z,20
2017-07-09T03:08:54.675Z,20
2017-07-09T03:10:06.928Z,20
2017-07-09T03:11:19.218Z,20
2017-07-09T03:12:31.831Z,25
2017-07-09T03:13:44.659Z,25
2017-07-09T03:14:57.247Z,25
2017-07-09T03:16:09.478Z,30
2017-07-09T03:17:22.058Z,30
2017-07-09T03:18:33.735Z,30
2017-07-09T03:19:46.073Z,30
2017-07-09T03:20:58.363Z,35
2017-07-09T03:22:10.666Z,35
2017-07-09T03:23:22.004Z,35
2017-07-09T03:24:34.006Z,40
2017-07-09T03:25:46.554Z,40
2017-07-09T03:26:58.839Z,40
2017-07-09T03:28:11.403Z,45
2017-07-09T03:29:24.041Z,45
2017-07-09T03:30:36.280Z,45
2017-07-09T03:31:48.504Z,50
2017-07-09T03:33:01.080Z,50
2017-07-09T03:34:13.019Z,55
2017-07-09T03:35:25.228Z,55
2017-07-09T03:36:37.492Z,55
2017-07-09T03:37:50.109Z,60
2017-07-09T03:39:02.398Z,60
2017-07-09T03:40:14.674Z,65
2017-07-09T03:41:27.190Z,65
2017-07-09T03:42:39.735Z,65
2017-07-09T03:43:52.072Z,70
2017-07-09T03:45:03.759Z,70
2017-07-09T03:46:16.366Z,70
2017-07-09T03:47:28.595Z,75
2017-07-09T03:48:41.227Z,75
2017-07-09T03:49:53.487Z,80
2017-07-09T03:51:06.008Z,80
2017-07-09T03:52:18.829Z,80
2017-07-09T03:53:31.050Z,85
2017-07-09T03:54:42.981Z,85
2017-07-09T03:55:55.246Z,90
2017-07-09T03:57:07.537Z,90
2017-07-09T03:58:19.795Z,95
2017-07-09T03:59:31.747Z,95
2017-07-09T04:00:44.007Z,95
2017-07-09T04:01:56.246Z,100
2017-07-09T04:03:08.248Z,100
2017-07-09T04:04:20.898Z,105
2017-07-09T04:05:33.183Z,105
2017-07-09T04:06:45.462Z,110
2017-07-09T04:07:57.726Z,110
2017-07-09T04:09:09.389Z,115
2017-07-09T04:10:21.630Z,115
2017-07-09T04:11:34.289Z,120
2017-07-09T04:12:46.888Z,120
2017-07-09T04:13:59.481Z,120
2017-07-09T04:15:12.095Z,125
2017-07-09T04:16:24.678Z,125
2017-07-09T04:17:36.575Z,125
2017-07-09T04:18:48.544Z,130
2017-07-09T04:20:01.116Z,135
2017-07-09T04:21:13.756Z,135
2017-07-09T04:22:25.677Z,140
2017-07-09T04:23:37.904Z,145
2017-07-09T04:24:49.873Z,140
2017-07-09T04:26:01.840Z,145
2017-07-09T04:27:14.473Z,150
2017-07-09T04:28:26.760Z,150
2017-07-09T04:29:39.384Z,155
2017-07-09T04:30:51.623Z,155
2017-07-09T04:32:04.211Z,160
2017-07-09T04:33:16.769Z,160
2017-07-09T04:34:29.386Z,160
2017-07-09T04:35:41.955Z,160
2017-07-09T04:36:54.236Z,160
2017-07-09T04:38:06.555Z,160
2017-07-09T04:39:19.199Z,165
2017-07-09T04:40:31.464Z,165
2017-07-09T04:41:43.405Z,170
2017-07-09T04:42:55.958Z,170
2017-07-09T04:44:08.227Z,175
2017-07-09T04:45:20.207Z,175
2017-07-09T04:46:32.502Z,180
2017-07-09T04:47:45.066Z,185
2017-07-09T04:48:57.681Z,190
2017-07-09T04:50:10.315Z,195
2017-07-09T04:51:22.646Z,210
2017-07-09T04:52:35.200Z,225
2017-07-09T04:53:47.564Z,225
2017-07-09T04:55:00.157Z,215
2017-07-09T04:56:12.430Z,200
2017-07-09T04:57:24.695Z,195
2017-07-09T04:58:36.686Z,190
2017-07-09T04:59:49.251Z,190
2017-07-09T05:01:01.827Z,190
2017-07-09T05:02:14.398Z,190
2017-07-09T05:03:26.639Z,195
2017-07-09T05:04:39.216Z,195
2017-07-09T05:05:51.803Z,195
2017-07-09T05:07:04.082Z,200
2017-07-09T05:08:16.665Z,200
2017-07-09T05:09:28.918Z,205
2017-07-09T05:10:41.522Z,205
2017-07-09T05:11:54.127Z,210
2017-07-09T05:13:06.415Z,215
2017-07-09T05:14:19.008Z,220
2017-07-09T05:15:31.247Z,225
2017-07-09T05:16:43.824Z,230
2017-07-09T05:17:56.393Z,235
2017-07-09T05:19:09.018Z,235
2017-07-09T05:20:21.645Z,245
2017-07-09T05:21:33.884Z,250
2017-07-09T05:22:45.884Z,250
2017-07-09T05:23:58.186Z,260
2017-07-09T05:25:10.543Z,270
2017-07-09T05:26:23.110Z,290
2017-07-09T05:27:35.359Z,295
2017-07-09T05:28:47.632Z,300
2017-07-09T05:30:00.522Z,350
2017-07-09T05:31:12.872Z,410
2017-07-09T05:32:25.464Z,425
2017-07-09T05:33:37.666Z,370
2017-07-09T05:34:50.219Z,325
2017-07-09T05:36:02.477Z,310
2017-07-09T05:37:15.030Z,305
2017-07-09T05:38:27.270Z,300
2017-07-09T05:39:39.246Z,295
2017-07-09T05:40:51.788Z,290
2017-07-09T05:42:04.011Z,280
2017-07-09T05:43:16.635Z,280
2017-07-09T05:44:29.180Z,280
2017-07-09T05:45:41.825Z,285
2017-07-09T05:46:54.065Z,290
2017-07-09T05:48:06.349Z,295
2017-07-09T05:49:18.651Z,300
2017-07-09T05:50:31.254Z,300
2017-07-09T05:51:43.478Z,310
2017-07-09T05:52:56.063Z,315
2017-07-09T05:54:08.066Z,320
2017-07-09T05:55:19.990Z,325
2017-07-09T05:56:32.614Z,330
2017-07-09T05:57:45.182Z,335
2017-07-09T05:58:57.756Z,335
2017-07-09T06:00:10.020Z,335
2017-07-09T06:01:22.312Z,345
2017-07-09T06:02:34.841Z,350
2017-07-09T06:03:47.487Z,345
2017-07-09T06:04:59.783Z,350
2017-07-09T06:06:11.756Z,355
2017-07-09T06:07:24.308Z,355
2017-07-09T06:08:36.625Z,360
2017-07-09T06:09:49.249Z,360
2017-07-09T06:11:01.815Z,370
2017-07-09T06:12:13.772Z,395
2017-07-09T06:13:26.362Z,405
2017-07-09T06:14:38.674Z,410
2017-07-09T06:15:50.948Z,445
2017-07-09T06:17:03.274Z,455
2017-07-09T06:18:15.517Z,450
2017-07-09T06:19:27.858Z,515
2017-07-09T06:20:40.132Z,545
2017-07-09T06:21:52.804Z,535
2017-07-09T06:23:04.166Z,505
2017-07-09T06:24:16.137Z,480
2017-07-09T06:25:28.426Z,575
2017-07-09T06:26:40.409Z,765
2017-07-09T06:27:52.358Z,880
2017-07-09T06:29:04.923Z,900
2017-07-09T06:30:17.511Z,730
2017-07-09T06:31:29.790Z,600
2017-07-09T06:32:42.066Z,620
2017-07-09T06:33:54.674Z,595
2017-07-09T06:35:06.678Z,580
2017-07-09T06:36:18.928Z,580
2017-07-09T06:37:31.485Z,585
2017-07-09T06:38:43.422Z,605
2017-07-09T06:39:56.003Z,665
2017-07-09T06:41:08.344Z,730
2017-07-09T06:42:20.677Z,895
2017-07-09T06:43:33.265Z,1000
2017-07-09T06:44:44.925Z,1095
2017-07-09T06:45:57.793Z,1155
2017-07-09T06:47:09.535Z,1245
2017-07-09T06:48:21.864Z,1080
2017-07-09T06:49:34.107Z,785
2017-07-09T06:50:46.651Z,780
2017-07-09T06:51:58.925Z,710
2017-07-09T06:53:10.852Z,690
2017-07-09T06:54:23.418Z,645
2017-07-09T06:55:36.008Z,625
2017-07-09T06:56:48.335Z,610
2017-07-09T06:58:00.989Z,580
2017-07-09T06:59:13.626Z,680
2017-07-09T07:00:26.243Z,495
2017-07-09T07:01:38.488Z,530
2017-07-09T07:02:51.114Z,1060
2017-07-09T07:04:03.691Z,1080
2017-07-09T07:05:15.700Z,1105
2017-07-09T07:06:28.257Z,1065
2017-07-09T07:07:39.297Z,1110
2017-07-09T07:08:51.006Z,1115
2017-07-09T07:10:03.630Z,1170
2017-07-09T07:11:16.222Z,1155
2017-07-09T07:12:28.179Z,1125
2017-07-09T07:13:40.502Z,1160
2017-07-09T07:14:52.718Z,1120
2017-07-09T07:16:04.975Z,1115
2017-07-09T07:17:16.633Z,1225
2017-07-09T07:18:29.247Z,1375
2017-07-09T07:19:41.876Z,1475
2017-07-09T07:20:54.175Z,1135
2017-07-09T07:22:05.855Z,850
2017-07-09T07:23:17.206Z,720
2017-07-09T07:24:29.160Z,615
2017-07-09T07:25:41.112Z,630
2017-07-09T07:26:53.789Z,1050
2017-07-09T07:28:05.772Z,1215
2017-07-09T07:29:18.100Z,1235
2017-07-09T07:30:30.671Z,825
2017-07-09T07:31:42.316Z,1310
2017-07-09T07:32:54.631Z,1340
2017-07-09T07:34:06.963Z,1335
2017-07-09T07:35:19.273Z,1370
2017-07-09T07:36:31.495Z,1325
2017-07-09T07:37:43.745Z,1355
2017-07-09T07:38:55.697Z,1450
2017-07-09T07:40:08.523Z,1565
2017-07-09T07:41:20.856Z,1625
2017-07-09T07:42:32.205Z,1450
2017-07-09T07:43:44.526Z,1575
2017-07-09T07:44:57.105Z,1140
2017-07-09T07:46:09.386Z,1310
2017-07-09T07:47:21.685Z,990
2017-07-09T07:48:33.628Z,895
2017-07-09T07:49:46.251Z,830
2017-07-09T07:50:58.832Z,835
2017-07-09T07:52:11.422Z,850
2017-07-09T07:53:23.699Z,915
2017-07-09T07:54:35.989Z,1580
2017-07-09T07:55:48.628Z,1210
2017-07-09T07:57:00.849Z,1175
2017-07-09T07:58:13.462Z,1145
2017-07-09T07:59:25.503Z,1130
2017-07-09T08:00:37.513Z,995
2017-07-09T08:01:50.108Z,950
2017-07-09T08:03:02.005Z,995
2017-07-09T08:04:14.301Z,995
2017-07-09T08:05:26.884Z,965
2017-07-09T08:06:38.874Z,925
2017-07-09T08:07:50.888Z,805
2017-07-09T08:09:03.458Z,700
2017-07-09T08:10:15.416Z,585
2017-07-09T08:11:27.399Z,500
2017-07-09T08:12:39.909Z,455
2017-07-09T08:13:52.574Z,440
2017-07-09T08:15:04.638Z,430
2017-07-09T08:16:17.234Z,435
2017-07-09T08:17:29.161Z,465
2017-07-09T08:18:41.774Z,485
2017-07-09T08:19:54.151Z,490
2017-07-09T08:21:06.392Z,465
2017-07-09T08:22:18.388Z,435
2017-07-09T08:23:30.948Z,400
2017-07-09T08:24:43.507Z,395
2017-07-09T08:25:56.052Z,380
2017-07-09T08:27:08.601Z,355
2017-07-09T08:28:20.871Z,330
2017-07-09T08:29:33.089Z,325
2017-07-09T08:30:45.048Z,345
2017-07-09T08:31:57.668Z,380
2017-07-09T08:33:09.359Z,405
2017-07-09T08:34:21.623Z,415
2017-07-09T08:35:34.231Z,400
2017-07-09T08:36:46.795Z,385
2017-07-09T08:37:59.489Z,415
2017-07-09T08:39:11.722Z,465
2017-07-09T08:40:24.303Z,520
2017-07-09T08:41:36.876Z,580
2017-07-09T08:42:49.152Z,610
2017-07-09T08:44:01.752Z,625
2017-07-09T08:45:14.562Z,635
2017-07-09T08:46:26.863Z,640
2017-07-09T08:47:38.810Z,625
2017-07-09T08:48:51.330Z,595
2017-07-09T08:50:03.587Z,535
2017-07-09T08:51:14.885Z,460
2017-07-09T08:52:27.474Z,405
2017-07-09T08:53:40.058Z,390
2017-07-09T08:54:52.608Z,385
2017-07-09T08:56:05.197Z,395
2017-07-09T08:57:17.196Z,395
2017-07-09T08:58:29.809Z,405
2017-07-09T08:59:42.037Z,415
2017-07-09T09:00:54.059Z,425
2017-07-09T09:02:06.593Z,430
2017-07-09T09:03:18.526Z,415
2017-07-09T09:04:30.798Z,410
2017-07-09T09:05:43.035Z,410
2017-07-09T09:06:55.588Z,425
2017-07-09T09:08:07.521Z,455
2017-07-09T09:09:20.129Z,490
2017-07-09T09:10:32.452Z,520
2017-07-09T09:11:44.722Z,540
2017-07-09T09:12:57.322Z,550
2017-07-09T09:14:09.313Z,540
2017-07-09T09:15:21.887Z,550
2017-07-09T09:16:34.433Z,590
2017-07-09T09:17:47.058Z,625
2017-07-09T09:18:59.702Z,625
2017-07-09T09:20:11.968Z,600
2017-07-09T09:21:24.552Z,590
2017-07-09T09:22:35.659Z,605
2017-07-09T09:23:47.278Z,650
2017-07-09T09:24:59.937Z,700
2017-07-09T09:26:11.900Z,760
2017-07-09T09:27:24.444Z,790
2017-07-09T09:28:36.694Z,805
2017-07-09T09:29:49.317Z,845
2017-07-09T09:31:01.910Z,890
2017-07-09T09:32:14.209Z,895
2017-07-09T09:33:26.852Z,845
2017-07-09T09:34:39.131Z,790
2017-07-09T09:35:51.677Z,735
2017-07-09T09:37:04.276Z,720
2017-07-09T09:38:16.863Z,710
2017-07-09T09:39:29.078Z,695
2017-07-09T09:40:41.049Z,685
2017-07-09T09:41:53.598Z,655
2017-07-09T09:43:05.891Z,635
2017-07-09T09:44:18.180Z,630
2017-07-09T09:45:30.811Z,625
2017-07-09T09:46:42.441Z,630
2017-07-09T09:47:54.735Z,655
2017-07-09T09:49:06.658Z,685
2017-07-09T09:50:18.317Z,705
2017-07-09T09:51:30.820Z,730
2017-07-09T09:52:42.850Z,775
2017-07-09T09:53:54.780Z,830
2017-07-09T09:55:07.039Z,920
2017-07-09T09:56:19.021Z,965
2017-07-09T09:57:31.298Z,1050
2017-07-09T09:58:43.924Z,1100
2017-07-09T09:59:55.915Z,1155
2017-07-09T10:01:08.480Z,1155
2017-07-09T10:02:20.493Z,1145
2017-07-09T10:03:32.746Z,1130
2017-07-09T10:04:45.300Z,1140
2017-07-09T10:05:57.287Z,1170
2017-07-09T10:07:09.613Z,1165
2017-07-09T10:08:21.980Z,1210
2017-07-09T10:09:33.937Z,1150
2017-07-09T10:10:46.197Z,1135
2017-07-09T10:11:58.807Z,1140
2017-07-09T10:13:11.039Z,1130
2017-07-09T10:14:23.002Z,1155
2017-07-09T10:15:34.924Z,1210
2017-07-09T10:16:47.550Z,1285
2017-07-09T10:18:00.184Z,1375
2017-07-09T10:19:11.887Z,1570
2017-07-09T10:20:24.121Z,1350
2017-07-09T10:21:36.705Z,1320
2017-07-09T10:22:48.360Z,1280
2017-07-09T10:24:00.303Z,1285
2017-07-09T10:25:12.574Z,1220
2017-07-09T10:26:24.537Z,1250
2017-07-09T10:27:36.834Z,1315
2017-07-09T10:28:49.143Z,1390
2017-07-09T10:30:01.735Z,1285
2017-07-09T10:31:13.079Z,1160
2017-07-09T10:32:25.717Z,1105
2017-07-09T10:33:37.931Z,1080
2017-07-09T10:34:50.216Z,1115
2017-07-09T10:36:02.512Z,1180
2017-07-09T10:37:14.515Z,1160
2017-07-09T10:38:26.829Z,1135
2017-07-09T10:39:39.400Z,1070
2017-07-09T10:40:52.047Z,1035
2017-07-09T10:42:04.592Z,1020
2017-07-09T10:43:16.894Z,1005
2017-07-09T10:44:28.558Z,1025
2017-07-09T10:45:40.234Z,1055
2017-07-09T10:46:52.757Z,1100
2017-07-09T10:48:05.388Z,1125
2017-07-09T10:49:18.010Z,1105
2017-07-09T10:50:30.278Z,1165
2017-07-09T10:51:42.551Z,1050
2017-07-09T10:52:54.505Z,1025
2017-07-09T10:54:05.562Z,985
2017-07-09T10:55:17.200Z,935
2017-07-09T10:56:29.478Z,905
2017-07-09T10:57:41.741Z,880
2017-07-09T10:58:54.353Z,890
2017-07-09T11:00:06.037Z,930
2017-07-09T11:01:18.335Z,975
2017-07-09T11:02:30.298Z,1045
2017-07-09T11:03:42.894Z,1230
2017-07-09T11:04:55.444Z,1365
2017-07-09T11:06:07.694Z,1495
2017-07-09T11:07:20.021Z,1600
2017-07-09T11:08:32.313Z,1860
2017-07-09T11:09:44.579Z,2395
2017-07-09T11:10:57.276Z,1830
2017-07-09T11:12:09.546Z,1775
2017-07-09T11:13:21.592Z,1830
2017-07-09T11:14:33.833Z,2515
2017-07-09T11:15:46.405Z,2115
2017-07-09T11:16:58.677Z,2480
2017-07-09T11:18:10.294Z,2715
2017-07-09T11:19:22.620Z,2195
2017-07-09T11:20:34.305Z,1705
2017-07-09T11:21:46.951Z,2060
2017-07-09T11:22:59.478Z,1940
2017-07-09T11:24:11.730Z,1910
2017-07-09T11:25:24.021Z,1845
2017-07-09T11:26:36.573Z,1990
2017-07-09T11:27:49.180Z,2220
2017-07-09T11:29:01.710Z,2415
2017-07-09T11:30:13.665Z,2545
2017-07-09T11:31:25.956Z,2010
2017-07-09T11:32:38.556Z,2150
2017-07-09T11:33:51.167Z,2040
2017-07-09T11:35:03.406Z,1980
2017-07-09T11:36:15.416Z,2070
2017-07-09T11:37:27.722Z,2030
2017-07-09T11:38:39.992Z,2040
2017-07-09T11:39:51.972Z,2150
2017-07-09T11:41:04.273Z,1970
2017-07-09T11:42:16.573Z,2140
2017-07-09T11:43:28.821Z,2165
2017-07-09T11:44:41.086Z,2640
2017-07-09T11:45:53.104Z,4130
2017-07-09T11:47:05.390Z,4835
2017-07-09T11:48:17.757Z,4520
2017-07-09T11:49:30.315Z,3640
2017-07-09T11:50:42.602Z,3245
2017-07-09T11:51:54.899Z,2925
2017-07-09T11:53:06.551Z,2510
2017-07-09T11:54:17.909Z,4500
2017-07-09T11:55:30.178Z,2760
2017-07-09T11:56:42.495Z,3940
2017-07-09T11:57:54.786Z,3735
2017-07-09T11:59:07.132Z,3740
2017-07-09T12:00:19.732Z,3815
2017-07-09T12:01:31.386Z,3625
2017-07-09T12:02:43.722Z,3280
2017-07-09T12:03:56.319Z,3370
2017-07-09T12:05:08.613Z,3600
2017-07-09T12:06:21.185Z,3545
2017-07-09T12:07:33.502Z,3640
2017-07-09T12:08:45.799Z,3300
2017-07-09T12:09:58.061Z,3185
2017-07-09T12:11:10.390Z,3270
2017-07-09T12:12:22.349Z,3690
2017-07-09T12:13:34.325Z,3425
2017-07-09T12:14:46.708Z,3550
2017-07-09T12:15:58.960Z,3895
2017-07-09T12:17:11.284Z,3935
2017-07-09T12:18:23.567Z,4010
2017-07-09T12:19:35.572Z,4160
2017-07-09T12:20:47.875Z,4465
2017-07-09T12:22:00.535Z,4700
2017-07-09T12:23:11.917Z,4730
2017-07-09T12:24:23.945Z,4645
2017-07-09T12:25:36.285Z,4775
2017-07-09T12:26:48.641Z,4620
2017-07-09T12:28:00.970Z,4640
2017-07-09T12:29:12.683Z,4630
2017-07-09T12:30:24.958Z,4920
2017-07-09T12:31:37.247Z,4660
2017-07-09T12:32:49.759Z,4500
2017-07-09T12:34:02.319Z,4650
2017-07-09T12:35:14.649Z,4540
2017-07-09T12:36:26.655Z,4405
2017-07-09T12:37:38.969Z,4220
2017-07-09T12:38:51.557Z,3990
2017-07-09T12:40:03.217Z,4035
2017-07-09T12:41:15.555Z,4180
2017-07-09T12:42:28.210Z,4080
2017-07-09T12:43:40.226Z,3910
2017-07-09T12:44:52.850Z,3970
2017-07-09T12:46:05.134Z,3955
2017-07-09T12:47:17.769Z,3925
2017-07-09T12:48:30.443Z,3890
2017-07-09T12:49:42.713Z,3590
2017-07-09T12:50:54.962Z,3710
2017-07-09T12:52:07.309Z,3560
2017-07-09T12:53:19.586Z,3650
2017-07-09T12:54:31.875Z,3920
2017-07-09T12:55:44.522Z,3915
2017-07-09T12:56:57.122Z,3990
2017-07-09T12:58:08.494Z,4275
2017-07-09T12:59:20.788Z,4280
2017-07-09T13:00:33.099Z,4315
2017-07-09T13:01:45.398Z,4635
2017-07-09T13:02:58.016Z,4900
2017-07-09T13:04:09.668Z,4620
2017-07-09T13:05:22.363Z,4580
2017-07-09T13:06:34.964Z,4465
2017-07-09T13:07:47.580Z,3910
2017-07-09T13:09:00.137Z,4565
2017-07-09T13:10:11.833Z,4625
2017-07-09T13:11:23.799Z,4550
2017-07-09T13:12:36.415Z,4325
2017-07-09T13:13:48.817Z,4375
2017-07-09T13:15:01.130Z,3665
2017-07-09T13:16:12.196Z,3615
2017-07-09T13:17:24.444Z,4260
2017-07-09T13:18:37.013Z,4115
2017-07-09T13:19:49.311Z,4430
2017-07-09T13:21:01.944Z,4460
2017-07-09T13:22:13.925Z,4135
2017-07-09T13:23:25.900Z,3950
2017-07-09T13:24:37.616Z,3215
2017-07-09T13:25:49.657Z,4245
2017-07-09T13:27:01.610Z,4515
2017-07-09T13:28:14.282Z,4275
2017-07-09T13:29:26.869Z,4130
2017-07-09T13:30:38.873Z,3990
2017-07-09T13:31:51.432Z,3530
2017-07-09T13:33:04.021Z,3710
2017-07-09T13:34:16.272Z,4035
2017-07-09T13:35:28.599Z,3825
2017-07-09T13:36:40.593Z,3690
2017-07-09T13:37:52.891Z,3605
2017-07-09T13:39:05.201Z,4025
2017-07-09T13:40:17.208Z,3920
2017-07-09T13:41:29.461Z,4180
2017-07-09T13:42:41.488Z,4445
2017-07-09T13:43:53.832Z,4395
2017-07-09T13:45:06.491Z,4285
2017-07-09T13:46:18.546Z,4155
2017-07-09T13:47:30.808Z,3950
2017-07-09T13:48:42.485Z,4060
2017-07-09T13:49:55.093Z,4105
2017-07-09T13:51:07.410Z,4310
2017-07-09T13:52:19.724Z,4170
2017-07-09T13:53:32.272Z,4025
2017-07-09T13:54:44.566Z,4110
2017-07-09T13:55:56.823Z,4175
2017-07-09T13:57:09.482Z,4095
2017-07-09T13:58:22.082Z,3815
2017-07-09T13:59:34.056Z,3800
2017-07-09T14:00:45.996Z,3985
2017-07-09T14:01:58.248Z,3730
2017-07-09T14:03:10.854Z,3345
2017-07-09T14:04:23.110Z,3505
2017-07-09T14:05:35.090Z,3925
2017-07-09T14:06:47.079Z,4030
2017-07-09T14:07:59.434Z,4005
2017-07-09T14:09:11.473Z,4050
2017-07-09T14:10:23.438Z,3835
2017-07-09T14:11:36.034Z,3850
2017-07-09T14:12:48.058Z,3870
2017-07-09T14:14:00.676Z,3205
2017-07-09T14:15:12.684Z,3235
2017-07-09T14:16:24.643Z,3645
2017-07-09T14:17:36.564Z,3290
2017-07-09T14:18:48.536Z,2980
2017-07-09T14:20:00.837Z,2505
2017-07-09T14:21:12.519Z,3020
2017-07-09T14:22:24.203Z,3030
2017-07-09T14:23:35.875Z,3000
2017-07-09T14:24:48.414Z,2045
2017-07-09T14:26:01.069Z,3360
2017-07-09T14:27:13.943Z,3370
2017-07-09T14:28:26.559Z,3200
2017-07-09T14:29:38.210Z,3300
2017-07-09T14:30:50.544Z,3325
2017-07-09T14:32:02.526Z,3385
2017-07-09T14:33:14.812Z,3370
2017-07-09T14:34:27.085Z,2140
2017-07-09T14:35:39.370Z,3350
2017-07-09T14:36:51.677Z,3000
2017-07-09T14:38:04.301Z,3380
2017-07-09T14:39:16.302Z,3400
2017-07-09T14:40:28.572Z,3385
2017-07-09T14:41:41.149Z,3345
2017-07-09T14:42:53.653Z,2945
2017-07-09T14:44:06.317Z,2555
2017-07-09T14:45:18.912Z,2305
2017-07-09T14:46:31.158Z,1990
2017-07-09T14:47:43.124Z,970
2017-07-09T14:48:55.738Z,835
2017-07-09T14:50:07.654Z,725
2017-07-09T14:51:19.949Z,735
2017-07-09T14:52:32.253Z,740
2017-07-09T14:53:44.191Z,770
2017-07-09T14:54:56.769Z,1015
2017-07-09T14:56:09.398Z,880
2017-07-09T14:57:21.710Z,870
2017-07-09T14:58:33.674Z,885
2017-07-09T14:59:45.908Z,855
2017-07-09T15:00:57.640Z,815
2017-07-09T15:02:09.915Z,740
2017-07-09T15:03:22.460Z,725
2017-07-09T15:04:35.087Z,670
2017-07-09T15:05:47.102Z,700
2017-07-09T15:06:59.396Z,705
2017-07-09T15:08:10.438Z,660
2017-07-09T15:09:22.713Z,590
2017-07-09T15:10:34.983Z,545
2017-07-09T15:11:46.965Z,515
2017-07-09T15:12:59.587Z,495
2017-07-09T15:14:12.174Z,475
2017-07-09T15:15:24.442Z,450
2017-07-09T15:16:36.767Z,420
2017-07-09T15:17:48.760Z,400
2017-07-09T15:19:00.740Z,390
2017-07-09T15:20:13.082Z,365
2017-07-09T15:21:24.778Z,345
2017-07-09T15:22:36.100Z,325
2017-07-09T15:23:47.512Z,410
2017-07-09T15:24:59.196Z,440
2017-07-09T15:26:11.536Z,490
2017-07-09T15:27:24.151Z,445
2017-07-09T15:28:35.850Z,440
2017-07-09T15:29:48.125Z,430
2017-07-09T15:31:00.720Z,420
2017-07-09T15:32:12.995Z,405
2017-07-09T15:33:25.256Z,395
2017-07-09T15:34:37.544Z,390
2017-07-09T15:35:49.879Z,385
2017-07-09T15:37:01.845Z,450
2017-07-09T15:38:14.390Z,385
2017-07-09T15:39:26.021Z,375
2017-07-09T15:40:38.631Z,510
2017-07-09T15:41:50.980Z,415
2017-07-09T15:43:03.284Z,455
2017-07-09T15:44:14.925Z,665
2017-07-09T15:45:27.155Z,520
2017-07-09T15:46:39.411Z,425
2017-07-09T15:47:51.985Z,390
2017-07-09T15:49:04.258Z,405
2017-07-09T15:50:16.598Z,390
2017-07-09T15:51:28.898Z,355
2017-07-09T15:52:41.183Z,380
2017-07-09T15:53:53.787Z,340
2017-07-09T15:55:05.449Z,300
2017-07-09T15:56:17.453Z,310
2017-07-09T15:57:29.148Z,350
2017-07-09T15:58:41.737Z,370
2017-07-09T15:59:53.764Z,380
2017-07-09T16:01:06.365Z,380
2017-07-09T16:02:18.614Z,375
2017-07-09T16:03:30.910Z,350
2017-07-09T16:04:43.242Z,355
2017-07-09T16:05:55.520Z,360
2017-07-09T16:07:07.791Z,355
2017-07-09T16:08:20.079Z,345
2017-07-09T16:09:32.333Z,340
2017-07-09T16:10:44.746Z,335
2017-07-09T16:11:57.053Z,335
2017-07-09T16:13:08.727Z,325
2017-07-09T16:14:20.667Z,315
2017-07-09T16:15:32.963Z,290
2017-07-09T16:16:45.232Z,270
2017-07-09T16:17:57.554Z,250
2017-07-09T16:19:09.754Z,245
2017-07-09T16:20:22.321Z,230
2017-07-09T16:21:34.909Z,215
2017-07-09T16:22:46.606Z,205
2017-07-09T16:23:58.570Z,205
2017-07-09T16:25:10.255Z,220
2017-07-09T16:26:22.561Z,235
2017-07-09T16:27:34.507Z,245
2017-07-09T16:28:46.824Z,250
2017-07-09T16:29:58.824Z,255
2017-07-09T16:31:10.860Z,255
2017-07-09T16:32:23.162Z,260
2017-07-09T16:33:35.237Z,265
2017-07-09T16:34:47.578Z,265
2017-07-09T16:36:00.186Z,250
2017-07-09T16:37:12.470Z,240
2017-07-09T16:38:24.458Z,230